Time;durP1;ratioP1;P1;durP2;ratioP2;P2;SDS_P1;SDS_P2;PMS_P1;PMS_P2;Temp;Humidity;BMP_temperature;BMP_pressure;BME280_temperature;BME280_humidity;BME280_pressure;Samples;Min_cycle;Max_cycle;Signal;HPM_P1;HPM_P2
2022/11/02 00:01:42;;;;;;;7.13;1.40;;;;;;;13.54;72.29;101335.84;5064294;28;20032;-78
2022/11/02 00:04:08;;;;;;;9.43;1.77;;;;;;;13.56;72.14;101331.53;5064056;28;20051;-78
2022/11/02 00:06:33;;;;;;;9.40;1.77;;;;;;;13.60;72.10;101334.19;5063922;28;20025;-77
2022/11/02 00:08:58;;;;;;;7.30;1.88;;;;;;;13.60;72.19;101334.19;5063046;28;20115;-78
2022/11/02 00:11:23;;;;;;;10.60;2.00;;;;;;;13.60;71.91;101327.25;5062448;28;20283;-77
2022/11/02 00:13:49;;;;;;;7.68;1.83;;;;;;;13.60;71.85;101332.47;5063914;28;20029;-77
2022/11/02 00:16:17;;;;;;;7.38;1.52;;;;;;;13.62;71.67;101329.88;5063826;28;20033;-78
2022/11/02 00:18:45;;;;;;;9.00;1.77;;;;;;;13.63;71.71;101331.63;5062529;28;20021;-78
2022/11/02 00:21:11;;;;;;;7.80;1.42;;;;;;;13.64;71.39;101339.50;5063755;28;20279;-78
2022/11/02 00:23:37;;;;;;;9.30;1.80;;;;;;;13.65;71.62;101336.03;5063243;28;20029;-78
2022/11/02 00:26:03;;;;;;;7.13;1.50;;;;;;;13.67;71.36;101336.06;5063765;28;20051;-78
2022/11/02 00:28:29;;;;;;;8.63;1.55;;;;;;;13.67;71.15;101329.13;5063614;28;20047;-78
2022/11/02 00:30:54;;;;;;;6.90;1.75;;;;;;;13.68;71.32;101335.22;5063825;28;20187;-78
2022/11/02 00:33:20;;;;;;;5.65;1.60;;;;;;;13.69;70.81;101337.00;5062683;28;20346;-78
2022/11/02 00:35:45;;;;;;;9.23;1.80;;;;;;;13.71;70.88;101341.38;5063520;28;20033;-78
2022/11/02 00:38:11;;;;;;;8.20;1.67;;;;;;;13.72;70.68;101342.28;5063437;28;20033;-78
2022/11/02 00:40:36;;;;;;;5.72;1.30;;;;;;;13.73;70.62;101341.44;5063587;28;20104;-78
2022/11/02 00:43:02;;;;;;;8.00;1.70;;;;;;;13.76;69.89;101356.31;5062613;28;20024;-78
2022/11/02 00:45:27;;;;;;;6.47;1.70;;;;;;;13.76;70.18;101349.34;5063471;28;20056;-78
2022/11/02 00:47:52;;;;;;;7.32;1.65;;;;;;;13.77;69.84;101350.22;5063475;28;20040;-78
2022/11/02 00:50:18;;;;;;;6.75;1.52;;;;;;;13.76;69.89;101341.50;5062392;28;20021;-75
2022/11/02 00:52:43;;;;;;;6.35;1.73;;;;;;;13.74;69.23;101351.94;5063252;28;20036;-78
2022/11/02 00:55:10;;;;;;;7.90;1.40;;;;;;;13.73;69.30;101357.16;5063137;28;20032;-78
2022/11/02 00:57:37;;;;;;;9.57;1.73;;;;;;;13.68;69.26;101346.56;5061868;28;20176;-78
2022/11/02 01:00:05;;;;;;;8.48;1.67;;;;;;;13.66;69.31;101343.06;5063094;28;20025;-76
2022/11/02 01:02:31;;;;;;;6.72;1.50;;;;;;;13.63;69.06;101363.03;5063017;28;20260;-78
2022/11/02 01:04:57;;;;;;;6.03;1.48;;;;;;;13.59;69.17;101366.50;5063373;28;20112;-77
2022/11/02 01:07:22;;;;;;;7.45;1.60;;;;;;;13.55;68.43;101365.53;5063247;28;20032;-77
2022/11/02 01:09:47;;;;;;;7.22;1.50;;;;;;;13.52;68.71;101365.47;5061105;28;20271;-76
2022/11/02 01:12:13;;;;;;;7.07;1.70;;;;;;;13.48;68.84;101374.09;5062307;28;20029;-77
2022/11/02 01:14:38;;;;;;;7.13;1.58;;;;;;;13.44;69.20;101386.28;5061813;28;20259;-78
2022/11/02 01:17:03;;;;;;;6.13;1.40;;;;;;;13.39;68.96;101374.81;5062673;28;20021;-77
2022/11/02 01:19:29;;;;;;;8.23;1.60;;;;;;;13.36;68.88;101386.09;5062802;28;20032;-78
2022/11/02 01:21:54;;;;;;;6.78;1.30;;;;;;;13.33;68.65;101383.38;5062900;28;20056;-77
2022/11/02 01:24:19;;;;;;;5.60;1.52;;;;;;;13.29;68.19;101385.91;5062148;28;20029;-77
2022/11/02 01:26:49;;;;;;;5.15;1.25;;;;;;;13.27;68.42;101387.63;5062211;28;20033;-78
2022/11/02 01:29:14;;;;;;;5.75;1.38;;;;;;;13.24;68.25;101391.06;5062469;28;20024;-77
2022/11/02 01:31:39;;;;;;;7.15;1.30;;;;;;;13.20;68.60;101389.22;5062590;28;20048;-78
2022/11/02 01:34:04;;;;;;;7.20;1.40;;;;;;;13.17;68.44;101389.16;5062351;28;20172;-76
2022/11/02 01:36:30;;;;;;;8.35;1.92;;;;;;;13.13;68.40;101387.31;5061815;28;20021;-78
2022/11/02 01:38:55;;;;;;;7.35;1.40;;;;;;;13.11;68.33;101389.03;5062516;28;20025;-78
2022/11/02 01:41:21;;;;;;;7.78;1.27;;;;;;;13.07;68.75;101395.91;5062504;28;20067;-78
2022/11/02 01:43:50;;;;;;;5.80;1.42;;;;;;;13.02;68.68;101400.13;5062551;28;20035;-78
2022/11/02 01:46:34;;;;;;;9.32;1.40;;;;;;;12.99;68.68;101397.47;5062571;28;20032;-78
2022/11/02 01:49:08;;;;;;;8.07;1.38;;;;;;;12.96;69.16;101405.25;5062486;28;20025;-78
2022/11/02 01:51:38;;;;;;;4.30;1.10;;;;;;;12.92;69.02;101409.53;5077176;28;20075;-77
2022/11/02 01:54:17;;;;;;;4.63;1.20;;;;;;;12.88;69.17;101405.94;5062269;28;20033;-78
2022/11/02 01:56:47;;;;;;;7.03;1.70;;;;;;;12.86;69.24;101411.97;5062503;28;20302;-78
2022/11/02 01:59:16;;;;;;;5.63;1.20;;;;;;;12.86;68.90;101405.03;5062371;28;20044;-75
2022/11/02 02:01:42;;;;;;;4.35;1.20;;;;;;;12.86;69.19;101407.66;5062418;28;20028;-77
2022/11/02 02:04:10;;;;;;;4.47;1.17;;;;;;;12.86;69.35;101406.75;5062726;28;20067;-78
2022/11/02 02:06:36;;;;;;;5.95;1.23;;;;;;;12.84;69.58;101413.69;5061578;28;20088;-78
2022/11/02 02:09:05;;;;;;;5.45;1.25;;;;;;;12.84;69.44;101408.47;5062455;28;20017;-78
2022/11/02 02:11:36;;;;;;;6.90;1.13;;;;;;;12.83;69.63;101411.91;5062553;28;20031;-77
2022/11/02 02:14:05;;;;;;;6.32;1.20;;;;;;;12.80;69.49;101414.47;5062292;28;20056;-78
2022/11/02 02:16:55;;;;;;;5.50;1.52;;;;;;;12.78;69.74;101403.09;5077128;28;20263;-78
2022/11/02 02:19:58;;;;;;;5.97;1.55;;;;;;;12.76;69.96;101399.53;5061735;28;20072;-77
2022/11/02 02:22:45;;;;;;;5.30;1.15;;;;;;;12.72;70.09;101408.19;5062147;28;20020;-78
2022/11/02 02:25:26;;;;;;;7.00;1.17;;;;;;;12.66;70.49;101407.19;5062047;28;20048;-77
2022/11/02 02:28:12;;;;;;;6.38;1.27;;;;;;;12.61;70.77;101414.00;5062278;28;20025;-78
2022/11/02 02:31:13;;;;;;;7.47;1.70;;;;;;;12.58;70.84;101406.09;5060208;28;20187;-78
2022/11/02 02:34:08;;;;;;;6.35;1.35;;;;;;;12.55;71.09;101416.50;5061794;28;20250;-78
2022/11/02 02:36:40;;;;;;;6.95;1.45;;;;;;;12.51;71.18;101404.19;5060714;28;20037;-77
2022/11/02 02:39:15;;;;;;;5.38;1.17;;;;;;;12.50;71.42;101410.28;5065132;28;20029;-79
2022/11/02 02:41:53;;;;;;;10.05;2.05;;;;;;;12.47;71.93;101410.19;5065971;28;20029;-78
2022/11/02 02:44:26;;;;;;;7.13;1.58;;;;;;;12.46;71.74;101413.66;5065131;28;20263;-78
2022/11/02 02:46:57;;;;;;;7.70;1.88;;;;;;;12.43;71.88;101421.44;5065796;28;20033;-78
2022/11/02 02:49:36;;;;;;;8.20;1.40;;;;;;;12.40;71.99;101418.72;5065486;28;20095;-78
2022/11/02 02:52:02;;;;;;;7.53;1.40;;;;;;;12.38;71.89;101420.41;5065614;28;20033;-78
2022/11/02 02:54:35;;;;;;;7.53;1.48;;;;;;;12.35;71.93;101414.28;5063514;28;20036;-79
2022/11/02 02:57:07;;;;;;;7.38;1.63;;;;;;;12.32;71.83;101422.00;5063607;28;20033;-78
2022/11/02 02:59:50;;;;;;;7.20;1.40;;;;;;;12.31;72.00;101417.66;5080875;28;20021;-78
2022/11/02 03:02:29;;;;;;;8.68;1.40;;;;;;;12.31;71.86;101432.41;5065223;28;20092;-78
2022/11/02 03:04:54;;;;;;;;;;;;;;;12.37;71.78;101423.84;5065746;28;20033;-77
2022/11/02 03:07:24;;;;;;;10.00;2.00;;;;;;;12.29;71.80;101419.31;5065359;28;19927;-78
2022/11/02 03:09:59;;;;;;;8.02;1.80;;;;;;;12.28;71.66;101421.91;5064458;28;20027;-78
2022/11/02 03:12:44;;;;;;;9.15;1.65;;;;;;;12.26;71.53;101432.31;5065115;28;20049;-78
2022/11/02 03:15:18;;;;;;;8.93;2.10;;;;;;;12.25;71.64;101440.09;5064958;28;20045;-77
2022/11/02 03:18:05;;;;;;;8.88;1.77;;;;;;;12.26;71.45;101429.69;5065108;28;20088;-77
2022/11/02 03:21:07;;;;;;;11.02;1.52;;;;;;;12.26;71.26;101431.44;5065133;28;20032;-78
2022/11/02 03:23:39;;;;;;;10.23;1.70;;;;;;;12.24;71.29;101434.00;5051827;28;20036;-77
2022/11/02 03:26:08;;;;;;;9.18;1.55;;;;;;;12.24;71.22;101441.84;5064772;28;20059;-77
2022/11/02 03:28:54;;;;;;;7.65;1.60;;;;;;;12.26;71.14;101448.00;5065021;28;20032;-78
2022/11/02 03:31:35;;;;;;;10.57;1.50;;;;;;;12.28;71.30;101450.63;5064701;28;20025;-78
2022/11/02 03:34:14;;;;;;;9.45;1.40;;;;;;;12.28;71.18;101448.94;5064658;28;20052;-78
2022/11/02 03:36:44;;;;;;;7.47;1.63;;;;;;;12.27;70.94;101452.38;5064057;28;20048;-77
2022/11/02 03:39:13;;;;;;;12.32;1.58;;;;;;;12.28;70.69;101443.72;5064476;28;20199;-78
2022/11/02 03:41:40;;;;;;;;;;;;;;;12.31;71.00;101446.41;5065018;28;20806;-77
2022/11/02 03:44:10;;;;;;;7.75;1.95;;;;;;;12.26;70.87;101453.22;5064512;28;19971;-79
2022/11/02 03:46:37;;;;;;;9.15;1.60;;;;;;;12.24;70.95;101454.91;5064501;28;20021;-69
2022/11/02 03:49:06;;;;;;;12.73;2.47;;;;;;;12.23;70.89;101466.19;5064138;28;20039;-68
2022/11/02 03:51:36;;;;;;;8.18;1.83;;;;;;;12.22;71.02;101451.34;5063701;28;20052;-68
2022/11/02 03:54:08;;;;;;;8.13;2.08;;;;;;;12.20;71.17;101460.03;5064226;28;20033;-69
2022/11/02 03:56:45;;;;;;;9.32;2.08;;;;;;;12.17;71.29;101452.97;5064623;28;20071;-68
2022/11/02 03:59:12;;;;;;;9.82;1.92;;;;;;;12.17;71.38;101477.38;5064451;28;20044;-68
2022/11/02 04:01:41;;;;;;;10.13;1.90;;;;;;;12.16;71.47;101467.75;5062563;28;20179;-68
2022/11/02 04:04:06;;;;;;;8.60;1.83;;;;;;;12.16;71.86;101477.31;5092664;28;20078;-68
2022/11/02 04:06:33;;;;;;;11.13;1.92;;;;;;;12.12;72.05;101486.81;5062422;28;20066;-69
2022/11/02 04:08:58;;;;;;;9.88;1.80;;;;;;;12.11;72.14;101494.63;5063754;28;20024;-68
2022/11/02 04:19:36;;;;;;;13.23;2.05;;;;;;;12.05;72.88;101492.72;5062658;28;20044;-69
2022/11/02 04:27:31;;;;;;;11.43;2.03;;;;;;;12.05;73.12;101517.94;5062618;28;20295;-69
2022/11/02 04:29:56;;;;;;;8.80;2.60;;;;;;;12.03;72.90;101514.41;5062890;28;20307;-68
2022/11/02 04:35:07;;;;;;;10.65;1.92;;;;;;;12.04;72.69;101519.69;5063408;28;20052;-68
2022/11/02 04:40:21;;;;;;;11.68;2.25;;;;;;;12.00;72.26;101536.09;5062746;28;20093;-68
2022/11/02 04:42:46;;;;;;;9.45;2.17;;;;;;;11.98;73.21;101549.09;5063550;28;20056;-68
2022/11/02 04:45:12;;;;;;;9.40;1.67;;;;;;;11.95;73.19;101541.19;5063336;28;20031;-69
2022/11/02 04:47:37;;;;;;;10.10;2.20;;;;;;;11.96;73.20;101556.03;5063406;28;20031;-78
2022/11/02 04:50:03;;;;;;;8.18;1.70;;;;;;;11.94;73.16;101557.69;5062965;28;20098;-78
2022/11/02 04:52:28;;;;;;;8.80;1.90;;;;;;;11.94;73.19;101560.31;5063147;28;20047;-78
2022/11/02 04:54:53;;;;;;;8.10;1.98;;;;;;;11.93;73.24;101563.75;5095365;28;20028;-78
2022/11/02 04:57:19;;;;;;;7.78;1.55;;;;;;;11.92;73.09;101567.19;5062990;28;20271;-78
2022/11/02 04:59:44;;;;;;;8.50;1.70;;;;;;;11.93;73.07;101571.59;5062971;28;20021;-78
2022/11/02 05:02:09;;;;;;;10.10;1.70;;;;;;;11.93;73.16;101570.69;5062571;28;20076;-78
2022/11/02 05:04:34;;;;;;;7.93;1.80;;;;;;;11.91;73.23;101570.63;5063144;28;20025;-78
2022/11/02 05:07:00;;;;;;;7.57;1.52;;;;;;;11.91;73.41;101573.25;5062173;28;20029;-78
2022/11/02 05:09:25;;;;;;;9.32;2.00;;;;;;;11.91;73.50;101575.84;5062951;28;20028;-78
2022/11/02 05:11:50;;;;;;;10.57;2.25;;;;;;;11.91;73.32;101588.91;5062886;28;20210;-78
2022/11/02 05:14:15;;;;;;;8.18;1.92;;;;;;;11.91;73.19;101594.13;5062647;28;20051;-78
2022/11/02 05:16:41;;;;;;;12.10;2.35;;;;;;;11.91;73.19;101598.47;5062815;28;20337;-78
2022/11/02 05:19:06;;;;;;;9.00;1.90;;;;;;;11.93;73.34;101607.25;5062718;28;20036;-78
2022/11/02 05:21:31;;;;;;;8.60;1.75;;;;;;;11.91;73.08;101604.56;5061306;28;20115;-78
2022/11/02 05:23:57;;;;;;;7.60;1.80;;;;;;;11.91;72.86;101615.03;5062707;28;20096;-77
2022/11/02 05:26:22;;;;;;;9.13;1.58;;;;;;;11.89;72.98;101608.88;5062582;28;20279;-78
2022/11/02 05:28:49;;;;;;;13.25;2.05;;;;;;;11.85;72.84;101620.06;5062677;28;20036;-78
2022/11/02 05:31:14;;;;;;;9.63;1.80;;;;;;;11.82;73.02;101617.38;5060494;28;20021;-78
2022/11/02 05:33:40;;;;;;;10.57;2.20;;;;;;;11.80;73.28;101608.59;5062126;28;20064;-78
2022/11/02 05:36:05;;;;;;;9.18;1.92;;;;;;;11.80;72.89;101627.78;5062649;28;20135;-76
2022/11/02 05:38:30;;;;;;;10.13;1.90;;;;;;;11.78;72.83;101625.94;5062525;28;20039;-78
2022/11/02 05:40:58;;;;;;;9.02;1.80;;;;;;;11.77;72.76;101640.69;5062670;28;20068;-77
2022/11/02 05:43:24;;;;;;;8.20;1.65;;;;;;;11.78;73.08;101657.28;5062651;28;20114;-76
2022/11/02 05:45:54;;;;;;;6.85;1.95;;;;;;;11.77;73.03;101652.88;5061604;28;20311;-76
2022/11/02 05:48:20;;;;;;;9.30;1.60;;;;;;;11.76;72.82;101645.88;5061282;28;20032;-69
2022/11/02 05:50:45;;;;;;;5.32;1.25;;;;;;;11.73;72.87;101661.44;5062461;28;20080;-68
2022/11/02 05:53:10;;;;;;;6.97;1.30;;;;;;;11.73;72.89;101649.31;5062525;28;20025;-68
2022/11/02 05:55:35;;;;;;;9.70;1.70;;;;;;;11.68;72.92;101650.00;5062514;28;20025;-68
2022/11/02 05:58:01;;;;;;;7.65;1.73;;;;;;;11.63;73.11;101662.91;5062385;28;20194;-68
2022/11/02 06:00:26;;;;;;;7.43;1.70;;;;;;;11.59;73.41;101661.91;5077031;28;20033;-68
2022/11/02 06:02:56;;;;;;;8.02;1.70;;;;;;;11.56;73.55;101672.25;5062190;28;20299;-69
2022/11/02 06:05:22;;;;;;;8.32;1.77;;;;;;;11.54;73.59;101673.91;5062297;28;20017;-68
2022/11/02 06:07:47;;;;;;;7.78;1.77;;;;;;;11.49;73.78;101676.34;5062398;28;20260;-68
2022/11/02 06:10:12;;;;;;;6.65;1.50;;;;;;;11.46;73.89;101686.69;5062362;28;20028;-68
2022/11/02 06:12:37;;;;;;;8.85;1.73;;;;;;;11.44;74.09;101692.69;5064929;28;20048;-68
2022/11/02 06:15:03;;;;;;;7.88;2.15;;;;;;;11.40;73.90;101694.34;5065792;28;20029;-69
2022/11/02 06:17:36;;;;;;;9.05;1.75;;;;;;;11.37;74.33;101686.41;5066224;28;20072;-68
2022/11/02 06:20:01;;;;;;;9.25;1.40;;;;;;;11.34;74.56;101690.63;5066270;28;20029;-68
2022/11/02 06:22:26;;;;;;;10.73;1.83;;;;;;;11.30;74.75;101692.25;5066023;28;20071;-68
2022/11/02 06:24:51;;;;;;;8.10;1.55;;;;;;;11.27;74.73;101707.81;5065271;28;20175;-68
2022/11/02 06:27:17;;;;;;;8.32;1.50;;;;;;;11.25;74.78;101717.28;5066114;28;20087;-69
2022/11/02 06:29:42;;;;;;;8.95;1.58;;;;;;;11.22;75.06;101727.59;5066018;28;20035;-68
2022/11/02 06:32:07;;;;;;;8.88;1.73;;;;;;;11.20;75.17;101724.06;5065860;28;20032;-68
2022/11/02 06:34:32;;;;;;;8.43;1.70;;;;;;;11.17;75.02;101735.28;5065603;28;20048;-68
2022/11/02 06:36:58;;;;;;;8.55;1.70;;;;;;;11.15;75.20;101736.94;5066014;28;20044;-68
2022/11/02 06:39:23;;;;;;;12.60;1.77;;;;;;;11.12;75.51;101747.25;5065252;28;20271;-68
2022/11/02 06:41:48;;;;;;;8.95;1.42;;;;;;;11.10;75.68;101751.53;5065127;28;20100;-68
2022/11/02 06:44:14;;;;;;;9.40;1.83;;;;;;;11.09;75.68;101762.78;5065693;28;20025;-68
2022/11/02 06:46:39;;;;;;;9.93;2.03;;;;;;;11.08;75.92;101768.84;5065753;28;20036;-78
2022/11/02 06:49:04;;;;;;;9.60;1.60;;;;;;;11.07;75.79;101774.91;5065453;28;20279;-78
2022/11/02 06:51:29;;;;;;;9.60;1.77;;;;;;;11.06;75.88;101788.78;5065963;28;20092;-76
2022/11/02 06:53:55;;;;;;;7.50;1.63;;;;;;;11.03;76.04;101783.44;5064741;28;20259;-78
2022/11/02 06:56:20;;;;;;;11.57;1.63;;;;;;;11.02;75.81;101799.91;5064911;28;20079;-77
2022/11/02 06:58:45;;;;;;;11.52;2.78;;;;;;;10.99;76.33;101797.19;5098073;28;20028;-78
2022/11/02 07:01:12;;;;;;;7.82;1.55;;;;;;;10.99;76.13;101812.84;5065723;28;20048;-78
2022/11/02 07:03:37;;;;;;;7.95;1.63;;;;;;;10.99;76.41;101815.44;5064696;28;20039;-78
2022/11/02 07:06:02;;;;;;;8.65;2.00;;;;;;;10.99;76.23;101820.66;5065593;28;20029;-78
2022/11/02 07:08:28;;;;;;;9.93;1.90;;;;;;;10.95;76.07;101817.94;5064614;28;20320;-78
2022/11/02 07:10:53;;;;;;;6.78;1.55;;;;;;;10.94;76.12;101826.59;5065490;28;20096;-78
2022/11/02 07:13:19;;;;;;;8.23;1.73;;;;;;;10.92;75.95;101837.78;5065471;28;20021;-78
2022/11/02 07:15:44;;;;;;;9.48;1.58;;;;;;;10.92;76.10;101843.91;5065088;28;20053;-79
2022/11/02 07:18:10;;;;;;;7.68;1.55;;;;;;;10.92;76.47;101843.91;5064663;28;20251;-78
2022/11/02 07:20:35;;;;;;;8.10;1.80;;;;;;;10.92;76.25;101859.56;5065095;28;20282;-78
2022/11/02 07:23:02;;;;;;;10.68;1.65;;;;;;;10.92;76.58;101863.88;5064461;28;20082;-78
2022/11/02 07:25:32;;;;;;;12.88;2.00;;;;;;;10.92;76.53;101874.28;5064017;28;20086;-78
2022/11/02 07:27:58;;;;;;;7.35;1.35;;;;;;;10.91;76.69;101868.19;5064941;28;20256;-78
2022/11/02 07:30:25;;;;;;;6.93;1.30;;;;;;;10.91;76.51;101877.75;5064730;28;20040;-78
2022/11/02 07:32:50;;;;;;;7.63;2.05;;;;;;;10.91;76.61;101872.53;5063921;28;20283;-78
2022/11/02 07:35:16;;;;;;;11.05;1.60;;;;;;;10.92;76.82;101874.28;5064649;28;20021;-78
2022/11/02 07:37:41;;;;;;;9.27;1.60;;;;;;;10.92;76.78;101882.13;5064994;28;20021;-78
2022/11/02 07:40:09;;;;;;;7.95;1.42;;;;;;;10.92;76.89;101884.72;5064763;28;20029;-78
2022/11/02 07:42:34;;;;;;;9.82;1.58;;;;;;;10.93;76.77;101886.50;5063802;28;20102;-77
2022/11/02 07:44:59;;;;;;;9.18;1.73;;;;;;;10.92;76.71;101879.50;5063342;28;20271;-78
2022/11/02 07:47:25;;;;;;;8.00;1.65;;;;;;;10.92;77.13;101898.66;5064547;28;20038;-78
2022/11/02 07:49:51;;;;;;;9.57;2.05;;;;;;;10.92;77.24;101900.38;5063493;28;20098;-78
2022/11/02 07:52:16;;;;;;;6.82;1.65;;;;;;;10.93;77.45;101900.47;5063632;28;20090;-78
2022/11/02 07:54:41;;;;;;;8.30;1.42;;;;;;;10.95;77.38;101893.56;5063671;28;20040;-78
2022/11/02 07:57:06;;;;;;;9.77;2.25;;;;;;;10.95;77.48;101901.41;5079927;28;20028;-78
2022/11/02 07:59:32;;;;;;;9.30;1.70;;;;;;;10.96;77.52;101903.19;5064470;28;20032;-78
2022/11/02 08:01:57;;;;;;;9.02;1.88;;;;;;;10.97;77.45;101909.28;5063455;28;20183;-78
2022/11/02 08:04:22;;;;;;;8.35;1.92;;;;;;;10.98;77.71;101897.13;5063901;28;20127;-78
2022/11/02 08:06:48;;;;;;;8.18;1.60;;;;;;;11.00;78.37;101906.78;5064173;28;20067;-78
2022/11/02 08:09:14;;;;;;;9.23;1.70;;;;;;;11.02;77.64;101910.34;5063340;28;20242;-78
2022/11/02 08:11:39;;;;;;;6.68;1.58;;;;;;;11.03;77.54;101906.03;5061666;28;20071;-78
2022/11/02 08:14:05;;;;;;;10.93;1.77;;;;;;;11.06;77.60;101913.97;5063248;28;20037;-80
2022/11/02 08:16:30;;;;;;;9.77;1.65;;;;;;;11.07;78.03;101918.34;5062459;28;20032;-68
2022/11/02 08:18:58;;;;;;;8.57;2.20;;;;;;;11.10;77.55;101916.75;5064225;28;20044;-68
2022/11/02 08:21:23;;;;;;;7.90;1.80;;;;;;;11.12;77.56;101919.41;5061898;28;20067;-69
2022/11/02 08:23:49;;;;;;;8.60;1.90;;;;;;;11.15;77.30;101929.94;5064057;28;20052;-68
2022/11/02 08:26:14;;;;;;;6.15;1.45;;;;;;;11.16;77.25;101921.31;5061955;28;20094;-68
2022/11/02 08:28:40;;;;;;;5.97;1.60;;;;;;;11.19;77.84;101931.84;5063850;28;20028;-68
2022/11/02 08:31:06;;;;;;;7.80;1.58;;;;;;;11.22;77.51;101931.09;5063778;28;20020;-68
2022/11/02 08:33:32;;;;;;;8.07;1.52;;;;;;;11.25;77.33;101932.13;5062882;28;20276;-68
2022/11/02 08:36:03;;;;;;;8.25;1.77;;;;;;;11.26;77.46;101928.66;5061863;28;20052;-68
2022/11/02 08:38:29;;;;;;;8.07;1.73;;;;;;;11.29;76.95;101933.09;5050381;28;20252;-68
2022/11/02 08:40:55;;;;;;;8.15;1.75;;;;;;;11.31;77.37;101952.31;5062619;28;20071;-68
2022/11/02 08:43:20;;;;;;;6.32;1.60;;;;;;;11.34;76.54;101947.22;5078355;28;20100;-68
2022/11/02 08:45:45;;;;;;;8.95;1.77;;;;;;;11.36;76.42;101953.38;5062273;28;20256;-68
2022/11/02 08:48:11;;;;;;;10.95;2.00;;;;;;;11.40;76.48;101957.03;5063254;28;20032;-78
2022/11/02 08:50:37;;;;;;;9.65;1.83;;;;;;;11.43;76.18;101957.13;5062516;28;20055;-77
2022/11/02 08:53:03;;;;;;;9.38;1.98;;;;;;;11.46;75.98;101957.25;5062752;28;20105;-78
2022/11/02 08:55:28;;;;;;;7.90;1.60;;;;;;;11.48;76.08;101945.13;5063228;28;20354;-77
2022/11/02 08:57:56;;;;;;;10.77;2.20;;;;;;;11.49;74.73;101950.41;5063024;28;20100;-78
2022/11/02 09:00:27;;;;;;;9.98;1.88;;;;;;;11.53;74.56;101959.25;5063101;28;20032;-77
2022/11/02 09:02:59;;;;;;;10.38;1.90;;;;;;;11.54;75.04;101960.13;5063071;28;20124;-78
2022/11/02 09:05:24;;;;;;;8.18;1.70;;;;;;;11.58;74.82;101960.28;5061254;28;20090;-75
2022/11/02 09:07:58;;;;;;;7.57;1.48;;;;;;;11.60;74.71;101966.47;5062949;28;20187;-76
2022/11/02 09:10:24;;;;;;;9.00;1.73;;;;;;;11.64;74.82;101965.78;5062098;28;20045;-75
2022/11/02 09:12:49;;;;;;;11.93;2.00;;;;;;;11.69;74.78;101965.03;5062240;28;20025;-76
2022/11/02 09:15:14;;;;;;;10.75;2.00;;;;;;;11.73;74.53;101964.31;5062786;28;20036;-75
2022/11/02 09:17:39;;;;;;;10.10;1.85;;;;;;;11.77;75.05;101963.59;5063086;28;20080;-66
2022/11/02 09:20:05;;;;;;;11.15;1.90;;;;;;;11.78;74.32;101970.59;5061992;28;20264;-66
2022/11/02 09:22:31;;;;;;;10.23;1.75;;;;;;;11.79;74.48;101978.50;5062829;28;20055;-66
2022/11/02 09:24:56;;;;;;;11.90;2.10;;;;;;;11.82;73.67;101975.13;5062857;28;20299;-66
2022/11/02 09:27:21;;;;;;;9.50;1.67;;;;;;;11.85;74.29;101972.59;5062528;28;20025;-66
2022/11/02 09:29:46;;;;;;;11.00;2.42;;;;;;;11.91;74.25;101980.66;5062869;28;20096;-66
2022/11/02 09:32:12;;;;;;;7.47;1.50;;;;;;;11.95;74.03;101985.19;5062593;28;20206;-67
2022/11/02 09:34:37;;;;;;;10.93;1.85;;;;;;;11.98;74.05;101977.47;5060721;28;20053;-66
2022/11/02 09:37:02;;;;;;;8.60;1.95;;;;;;;12.02;74.12;101981.09;5061927;28;20315;-66
2022/11/02 09:39:27;;;;;;;10.32;1.83;;;;;;;12.05;74.17;101991.66;5062578;28;20028;-66
2022/11/02 09:42:02;;;;;;;10.55;1.63;;;;;;;12.11;74.30;101991.00;5062594;28;20041;-67
2022/11/02 09:44:46;;;;;;;9.30;1.70;;;;;;;12.17;74.43;102001.66;5062498;28;20035;-66
2022/11/02 09:47:12;;;;;;;11.68;2.15;;;;;;;12.17;73.56;101996.44;5062029;28;20036;-66
2022/11/02 09:49:39;;;;;;;11.38;2.15;;;;;;;12.15;73.85;101988.53;5062032;28;20025;-66
2022/11/02 09:52:13;;;;;;;10.43;2.25;;;;;;;12.13;73.17;102000.63;5062360;28;20029;-67
2022/11/02 09:54:42;;;;;;;10.25;1.95;;;;;;;12.13;72.15;101997.16;5062443;28;20033;-66
2022/11/02 09:57:15;;;;;;;9.60;1.83;;;;;;;12.17;72.98;101986.84;5062316;28;20044;-66
2022/11/02 09:59:41;;;;;;;10.75;1.92;;;;;;;12.23;73.41;101996.63;5062410;28;20031;-66
2022/11/02 10:02:28;;;;;;;10.13;2.00;;;;;;;12.26;73.29;102003.69;5062225;28;20025;-66
2022/11/02 10:05:19;;;;;;;9.05;1.95;;;;;;;12.29;72.03;101999.44;5060774;28;20033;-66
2022/11/02 10:08:24;;;;;;;9.15;2.03;;;;;;;12.37;72.33;102004.06;5062001;28;20267;-66
2022/11/02 10:11:16;;;;;;;6.70;1.67;;;;;;;12.44;71.64;102011.28;5062170;28;20071;-66
2022/11/02 10:13:47;;;;;;;7.35;1.83;;;;;;;12.48;71.29;102028.84;5061700;28;20282;-65
2022/11/02 10:16:24;;;;;;;8.73;1.52;;;;;;;12.55;69.99;102020.38;5061320;28;20086;-66
2022/11/02 10:18:52;;;;;;;8.13;1.45;;;;;;;12.61;70.14;102024.94;5062259;28;20021;-66
2022/11/02 10:21:37;;;;;;;11.43;2.10;;;;;;;12.68;70.61;102025.19;5062200;28;20067;-66
2022/11/02 10:24:20;;;;;;;11.30;1.63;;;;;;;12.78;69.20;102028.13;5062199;28;20025;-66
2022/11/02 10:26:46;;;;;;;9.02;1.90;;;;;;;12.84;68.94;102038.78;5060905;28;20072;-66
2022/11/02 10:29:27;;;;;;;11.38;1.80;;;;;;;12.88;68.47;102033.72;5061994;28;20173;-65
2022/11/02 10:31:52;;;;;;;9.65;1.98;;;;;;;12.97;68.67;102017.44;5062066;28;20053;-66
2022/11/02 10:34:27;;;;;;;9.43;1.73;;;;;;;13.06;68.85;102019.44;5061843;28;20422;-66
2022/11/02 10:37:36;;;;;;;9.68;2.15;;;;;;;13.17;68.66;102019.81;5061940;28;20045;-66
2022/11/02 10:40:20;;;;;;;6.38;1.45;;;;;;;13.29;68.36;102028.03;5050187;28;20053;-66
2022/11/02 10:43:15;;;;;;;8.50;1.73;;;;;;;13.33;67.05;102024.69;5062246;28;20024;-66
2022/11/02 10:45:54;;;;;;;7.05;1.42;;;;;;;13.42;67.93;102029.34;5062101;28;20048;-66
2022/11/02 10:48:47;;;;;;;8.73;1.60;;;;;;;13.52;67.09;102033.16;5061847;28;20056;-76
2022/11/02 10:51:14;;;;;;;8.43;1.67;;;;;;;13.52;65.38;102031.41;5060330;28;20017;-76
2022/11/02 10:53:45;;;;;;;9.18;1.85;;;;;;;13.54;64.77;102031.44;5061902;28;20032;-76
2022/11/02 10:56:19;;;;;;;10.55;1.75;;;;;;;13.57;64.65;102037.69;5061875;28;20238;-76
2022/11/02 10:58:58;;;;;;;8.32;1.65;;;;;;;13.63;64.27;102041.31;5063365;28;20211;-76
2022/11/02 11:01:24;;;;;;;8.70;1.50;;;;;;;13.64;63.47;102038.72;5065366;28;20100;-77
2022/11/02 11:04:05;;;;;;;9.02;1.77;;;;;;;13.66;64.63;102052.78;5065442;28;20035;-75
2022/11/02 11:06:35;;;;;;;8.52;1.63;;;;;;;13.71;62.44;102045.94;5064619;28;20264;-76
2022/11/02 11:09:13;;;;;;;7.30;1.63;;;;;;;13.78;62.40;102047.03;5064368;28;20033;-76
2022/11/02 11:11:39;;;;;;;6.43;1.50;;;;;;;13.86;62.24;102040.28;5065092;28;20025;-76
2022/11/02 11:14:14;;;;;;;8.43;1.90;;;;;;;13.93;62.19;102040.47;5064897;28;20075;-76
2022/11/02 11:16:42;;;;;;;7.70;1.73;;;;;;;13.98;60.87;102042.38;5065365;28;20100;-76
2022/11/02 11:19:35;;;;;;;6.38;1.52;;;;;;;14.04;62.20;102042.53;5065212;28;20096;-76
2022/11/02 11:22:01;;;;;;;8.27;1.48;;;;;;;14.09;61.70;102040.94;5062439;28;20049;-75
2022/11/02 11:24:32;;;;;;;8.82;1.70;;;;;;;14.13;60.13;102038.41;5064170;28;20227;-76
2022/11/02 11:27:03;;;;;;;6.45;1.52;;;;;;;14.23;61.21;102036.06;5064950;28;20059;-75
2022/11/02 11:29:33;;;;;;;17.38;2.08;;;;;;;14.27;60.71;102039.69;5064826;28;20080;-76
2022/11/02 11:32:01;;;;;;;9.82;1.70;;;;;;;14.30;60.14;102031.03;5064864;28;20091;-77
2022/11/02 11:34:29;;;;;;;6.97;1.55;;;;;;;14.33;60.02;102028.47;5063463;28;20040;-77
2022/11/02 11:37:10;;;;;;;7.35;1.83;;;;;;;14.38;60.94;102022.50;5064791;28;20092;-76
2022/11/02 11:39:39;;;;;;;11.45;1.75;;;;;;;14.45;60.41;102020.94;5063761;28;20029;-77
2022/11/02 11:42:15;;;;;;;7.75;1.35;;;;;;;14.51;60.49;102020.19;5063322;28;20017;-76
2022/11/02 11:44:53;;;;;;;7.22;1.65;;;;;;;14.60;60.48;102020.47;5061540;28;20044;-76
2022/11/02 11:47:25;;;;;;;9.25;1.60;;;;;;;14.65;59.60;102017.97;5062015;28;20041;-66
2022/11/02 11:49:51;;;;;;;8.05;1.33;;;;;;;14.64;58.15;102014.44;5060155;28;20036;-66
2022/11/02 11:52:26;;;;;;;8.73;1.65;;;;;;;14.64;59.89;102014.44;5062510;28;20290;-66
2022/11/02 11:54:57;;;;;;;7.25;2.00;;;;;;;14.68;60.23;102023.31;5061809;28;20041;-66